<?xml version='1.0' encoding='UTF-8'?><gpx version="1.1" creator="JPX - https://github.com/jenetics/jpx" xmlns="http://www.topografix.com/GPX/1/1"><trk><trkseg><trkpt lat="46.0332966" lon="9.354018"><ele>436.0</ele><time>2026-04-05T07:13:12.349Z</time></trkpt><trkpt lat="46.0107029" lon="9.3728795"><ele>933.0</ele><time>2026-04-05T07:26:00.973Z</time></trkpt><trkpt lat="46.0373133" lon="9.3721683"><ele>928.3333333333333</ele><time>2026-04-05T07:29:12.653Z</time></trkpt><trkpt lat="46.0369372" lon="9.3722506"><ele>923.6666666666666</ele><time>2026-04-05T07:42:00.653Z</time></trkpt><trkpt lat="46.0369887" lon="9.3721949"><ele>919.0</ele><time>2026-04-05T07:42:38.651Z</time></trkpt><trkpt lat="46.0344883" lon="9.3698301"><ele>892.0</ele><time>2026-04-05T07:44:42.324Z</time></trkpt><trkpt lat="46.0343796" lon="9.3690207"><ele>871.0</ele><time>2026-04-05T07:44:47.921Z</time></trkpt><trkpt lat="46.0340827" lon="9.368024"><ele>864.0</ele><time>2026-04-05T07:44:54.137Z</time></trkpt><trkpt lat="46.0349173" lon="9.3646587"><ele>966.0</ele><time>2026-04-05T07:45:33.215Z</time></trkpt><trkpt lat="46.0328731" lon="9.3588597"><ele>966.0</ele><time>2026-04-05T07:46:55.386Z</time></trkpt><trkpt lat="46.0326154" lon="9.3583738"><ele>966.0</ele><time>2026-04-05T07:47:02.857Z</time></trkpt><trkpt lat="46.0331436" lon="9.3542148"><ele>476.0</ele><time>2026-04-05T07:47:32.15Z</time></trkpt><trkpt lat="46.023119" lon="9.3639909"><ele>459.0</ele><time>2026-04-05T08:01:00.23Z</time></trkpt><trkpt lat="46.0025776" lon="9.3855944"><ele>477.0</ele><time>2026-04-05T08:14:17.609Z</time></trkpt><trkpt lat="45.9997568" lon="9.3823956"><ele>498.0</ele><time>2026-04-05T08:14:33.604Z</time></trkpt><trkpt lat="45.9974941" lon="9.3861384"><ele>517.0</ele><time>2026-04-05T08:18:20.66Z</time></trkpt><trkpt lat="45.9954879" lon="9.3855937"><ele>493.0</ele><time>2026-04-05T08:19:28.586Z</time></trkpt><trkpt lat="45.998019" lon="9.3840951"><ele>517.0</ele><time>2026-04-05T08:20:11.685Z</time></trkpt><trkpt lat="45.995749" lon="9.3858352"><ele>517.0</ele><time>2026-04-05T08:20:23.135Z</time></trkpt><trkpt lat="45.995513" lon="9.3856292"><ele>517.0</ele><time>2026-04-05T08:20:28.675Z</time></trkpt><trkpt lat="45.9950905" lon="9.3876485"><ele>528.0</ele><time>2026-04-05T08:21:22.502Z</time></trkpt><trkpt lat="45.9941348" lon="9.3884392"><ele>510.0</ele><time>2026-04-05T08:22:10.524Z</time></trkpt><trkpt lat="45.9941511" lon="9.3908694"><ele>491.0</ele><time>2026-04-05T08:22:42.964Z</time></trkpt><trkpt lat="45.9951089" lon="9.3923039"><ele>505.0</ele><time>2026-04-05T08:23:12.617Z</time></trkpt><trkpt lat="45.9945653" lon="9.3911211"><ele>505.0</ele><time>2026-04-05T08:24:14.054Z</time></trkpt><trkpt lat="45.9944784" lon="9.3909276"><ele>505.0</ele><time>2026-04-05T08:24:20.375Z</time></trkpt><trkpt lat="45.9943775" lon="9.3910418"><ele>505.0</ele><time>2026-04-05T08:27:42.388Z</time></trkpt><trkpt lat="45.9902657" lon="9.4028435"><ele>565.0</ele><time>2026-04-05T08:33:23.692Z</time></trkpt><trkpt lat="45.9834357" lon="9.4378184"><ele>565.0</ele><time>2026-04-05T08:44:09.448Z</time></trkpt><trkpt lat="45.9835217" lon="9.4376898"><ele>565.0</ele><time>2026-04-05T08:54:39.283Z</time></trkpt><trkpt lat="46.0022798" lon="9.3865915"><ele>448.0</ele><time>2026-04-05T09:01:05.708Z</time></trkpt><trkpt lat="46.0044976" lon="9.3834014"><ele>457.0</ele><time>2026-04-05T09:01:12.129Z</time></trkpt><trkpt lat="46.0042644" lon="9.3849137"><ele>456.0</ele><time>2026-04-05T09:01:18.589Z</time></trkpt><trkpt lat="46.004133" lon="9.3851284"><ele>455.0</ele><time>2026-04-05T09:01:24.531Z</time></trkpt><trkpt lat="46.0078822" lon="9.3819623"><ele>447.0</ele><time>2026-04-05T09:01:36.499Z</time></trkpt><trkpt lat="46.007722" lon="9.3806201"><ele>448.0</ele><time>2026-04-05T09:01:43.885Z</time></trkpt><trkpt lat="46.008029" lon="9.3799834"><ele>450.0</ele><time>2026-04-05T09:01:52.237Z</time></trkpt><trkpt lat="46.0083737" lon="9.3791343"><ele>434.0</ele><time>2026-04-05T09:02:00.214Z</time></trkpt><trkpt lat="46.0152827" lon="9.370715"><ele>981.0</ele><time>2026-04-05T09:02:54.455Z</time></trkpt><trkpt lat="46.0334376" lon="9.3538323"><ele>981.0</ele><time>2026-04-05T09:19:27.375Z</time></trkpt><trkpt lat="46.0332839" lon="9.3541216"><ele>981.0</ele><time>2026-04-05T09:19:33.495Z</time></trkpt><trkpt lat="46.0333354" lon="9.3539817"><ele>981.0</ele><time>2026-04-05T09:23:51.758Z</time></trkpt><trkpt lat="46.033374" lon="9.3536924"><ele>981.0</ele><time>2026-04-05T09:23:58.292Z</time></trkpt><trkpt lat="46.0331071" lon="9.3538732"><ele>965.0</ele><time>2026-04-05T09:36:31.66Z</time></trkpt></trkseg></trk></gpx>